sensor_id;sensor_type;location;lat;lon;timestamp;P1;durP1;ratioP1;P2;durP2;ratioP2
62798;SDS011;48842;51.046;13.796;2024-01-11T00:01:58;27.27;;;15.63;;
62798;SDS011;48842;51.046;13.796;2024-01-11T00:04:23;31.10;;;16.40;;
62798;SDS011;48842;51.046;13.796;2024-01-11T00:06:49;29.50;;;18.00;;
62798;SDS011;48842;51.046;13.796;2024-01-11T00:09:15;33.47;;;15.52;;
62798;SDS011;48842;51.046;13.796;2024-01-11T00:11:40;26.70;;;15.30;;
62798;SDS011;48842;51.046;13.796;2024-01-11T00:14:05;24.40;;;14.97;;
62798;SDS011;48842;51.046;13.796;2024-01-11T00:16:31;25.30;;;15.60;;
62798;SDS011;48842;51.046;13.796;2024-01-11T00:18:57;22.63;;;15.20;;
62798;SDS011;48842;51.046;13.796;2024-01-11T00:21:23;27.67;;;16.33;;
62798;SDS011;48842;51.046;13.796;2024-01-11T00:23:48;27.57;;;15.20;;
62798;SDS011;48842;51.046;13.796;2024-01-11T00:26:15;22.23;;;14.13;;
62798;SDS011;48842;51.046;13.796;2024-01-11T00:28:40;26.55;;;14.25;;
62798;SDS011;48842;51.046;13.796;2024-01-11T00:31:05;26.20;;;15.27;;
62798;SDS011;48842;51.046;13.796;2024-01-11T00:33:31;20.47;;;13.83;;
62798;SDS011;48842;51.046;13.796;2024-01-11T00:35:56;27.40;;;15.47;;
62798;SDS011;48842;51.046;13.796;2024-01-11T00:38:22;20.83;;;13.47;;
62798;SDS011;48842;51.046;13.796;2024-01-11T00:40:47;26.33;;;13.17;;
62798;SDS011;48842;51.046;13.796;2024-01-11T00:43:12;26.20;;;15.13;;
62798;SDS011;48842;51.046;13.796;2024-01-11T00:45:37;25.47;;;14.43;;
62798;SDS011;48842;51.046;13.796;2024-01-11T00:48:03;30.40;;;15.27;;
62798;SDS011;48842;51.046;13.796;2024-01-11T00:50:29;24.35;;;14.30;;
62798;SDS011;48842;51.046;13.796;2024-01-11T00:52:54;22.77;;;12.93;;
62798;SDS011;48842;51.046;13.796;2024-01-11T00:55:20;19.93;;;12.17;;
62798;SDS011;48842;51.046;13.796;2024-01-11T00:57:45;25.97;;;14.80;;
62798;SDS011;48842;51.046;13.796;2024-01-11T01:00:10;29.67;;;15.07;;
62798;SDS011;48842;51.046;13.796;2024-01-11T01:02:39;29.92;;;14.60;;
62798;SDS011;48842;51.046;13.796;2024-01-11T01:05:04;28.87;;;13.63;;
62798;SDS011;48842;51.046;13.796;2024-01-11T01:07:30;36.70;;;15.27;;
62798;SDS011;48842;51.046;13.796;2024-01-11T01:09:55;24.67;;;14.47;;
62798;SDS011;48842;51.046;13.796;2024-01-11T01:12:20;21.13;;;13.27;;
62798;SDS011;48842;51.046;13.796;2024-01-11T01:14:45;23.43;;;14.07;;
62798;SDS011;48842;51.046;13.796;2024-01-11T01:17:11;23.87;;;14.00;;
62798;SDS011;48842;51.046;13.796;2024-01-11T01:19:36;27.57;;;14.40;;
62798;SDS011;48842;51.046;13.796;2024-01-11T01:22:01;24.80;;;13.63;;
62798;SDS011;48842;51.046;13.796;2024-01-11T01:24:26;29.43;;;16.73;;
62798;SDS011;48842;51.046;13.796;2024-01-11T01:26:52;29.70;;;14.27;;
62798;SDS011;48842;51.046;13.796;2024-01-11T01:29:17;25.37;;;13.30;;
62798;SDS011;48842;51.046;13.796;2024-01-11T01:31:42;20.27;;;12.70;;
62798;SDS011;48842;51.046;13.796;2024-01-11T01:34:07;23.30;;;14.70;;
62798;SDS011;48842;51.046;13.796;2024-01-11T01:36:33;23.33;;;13.80;;
62798;SDS011;48842;51.046;13.796;2024-01-11T01:38:58;26.60;;;14.60;;
62798;SDS011;48842;51.046;13.796;2024-01-11T01:41:23;23.87;;;14.17;;
62798;SDS011;48842;51.046;13.796;2024-01-11T01:43:48;28.33;;;13.90;;
62798;SDS011;48842;51.046;13.796;2024-01-11T01:46:17;23.37;;;14.10;;
62798;SDS011;48842;51.046;13.796;2024-01-11T01:48:47;23.38;;;13.73;;
62798;SDS011;48842;51.046;13.796;2024-01-11T01:51:13;25.20;;;14.70;;
62798;SDS011;48842;51.046;13.796;2024-01-11T01:53:39;25.30;;;14.25;;
62798;SDS011;48842;51.046;13.796;2024-01-11T01:56:05;22.02;;;14.55;;
62798;SDS011;48842;51.046;13.796;2024-01-11T01:58:31;25.52;;;14.07;;
62798;SDS011;48842;51.046;13.796;2024-01-11T02:00:58;26.40;;;15.30;;
62798;SDS011;48842;51.046;13.796;2024-01-11T02:03:24;29.27;;;15.17;;
62798;SDS011;48842;51.046;13.796;2024-01-11T02:05:51;25.55;;;14.60;;
62798;SDS011;48842;51.046;13.796;2024-01-11T02:08:16;24.20;;;14.40;;
62798;SDS011;48842;51.046;13.796;2024-01-11T02:10:46;23.98;;;14.55;;
62798;SDS011;48842;51.046;13.796;2024-01-11T02:13:12;21.95;;;13.90;;
62798;SDS011;48842;51.046;13.796;2024-01-11T02:15:38;34.53;;;14.93;;
62798;SDS011;48842;51.046;13.796;2024-01-11T02:18:03;21.97;;;14.30;;
62798;SDS011;48842;51.046;13.796;2024-01-11T02:20:29;26.90;;;16.10;;
62798;SDS011;48842;51.046;13.796;2024-01-11T02:22:56;18.63;;;12.47;;
62798;SDS011;48842;51.046;13.796;2024-01-11T02:25:28;23.63;;;14.13;;
62798;SDS011;48842;51.046;13.796;2024-01-11T02:27:53;23.33;;;13.97;;
62798;SDS011;48842;51.046;13.796;2024-01-11T02:30:19;21.57;;;14.50;;
62798;SDS011;48842;51.046;13.796;2024-01-11T02:32:45;23.50;;;14.60;;
62798;SDS011;48842;51.046;13.796;2024-01-11T02:35:11;19.35;;;13.27;;
62798;SDS011;48842;51.046;13.796;2024-01-11T02:37:38;20.50;;;14.07;;
62798;SDS011;48842;51.046;13.796;2024-01-11T02:40:04;25.17;;;15.00;;
62798;SDS011;48842;51.046;13.796;2024-01-11T02:42:32;22.83;;;13.80;;
62798;SDS011;48842;51.046;13.796;2024-01-11T02:44:57;21.47;;;14.17;;
62798;SDS011;48842;51.046;13.796;2024-01-11T02:47:22;23.20;;;13.50;;
62798;SDS011;48842;51.046;13.796;2024-01-11T02:49:48;20.70;;;13.27;;
62798;SDS011;48842;51.046;13.796;2024-01-11T02:52:13;22.97;;;13.40;;
62798;SDS011;48842;51.046;13.796;2024-01-11T02:54:38;25.27;;;14.70;;
62798;SDS011;48842;51.046;13.796;2024-01-11T02:57:04;27.83;;;14.93;;
62798;SDS011;48842;51.046;13.796;2024-01-11T02:59:29;20.90;;;14.13;;
62798;SDS011;48842;51.046;13.796;2024-01-11T03:01:56;23.43;;;14.97;;
62798;SDS011;48842;51.046;13.796;2024-01-11T03:04:21;27.67;;;14.93;;
62798;SDS011;48842;51.046;13.796;2024-01-11T03:06:47;30.43;;;14.87;;
62798;SDS011;48842;51.046;13.796;2024-01-11T03:09:12;24.13;;;14.33;;
62798;SDS011;48842;51.046;13.796;2024-01-11T03:11:37;27.67;;;14.57;;
62798;SDS011;48842;51.046;13.796;2024-01-11T03:14:02;20.37;;;12.57;;
62798;SDS011;48842;51.046;13.796;2024-01-11T03:16:28;24.63;;;14.03;;
62798;SDS011;48842;51.046;13.796;2024-01-11T03:18:53;22.77;;;14.40;;
62798;SDS011;48842;51.046;13.796;2024-01-11T03:21:18;29.70;;;14.77;;
62798;SDS011;48842;51.046;13.796;2024-01-11T03:23:44;24.27;;;13.50;;
62798;SDS011;48842;51.046;13.796;2024-01-11T03:26:13;27.13;;;14.20;;
62798;SDS011;48842;51.046;13.796;2024-01-11T03:28:39;21.65;;;13.60;;
62798;SDS011;48842;51.046;13.796;2024-01-11T03:31:04;21.13;;;12.77;;
62798;SDS011;48842;51.046;13.796;2024-01-11T03:33:29;27.47;;;15.00;;
62798;SDS011;48842;51.046;13.796;2024-01-11T03:35:55;27.70;;;15.77;;
62798;SDS011;48842;51.046;13.796;2024-01-11T03:38:20;26.10;;;14.83;;
62798;SDS011;48842;51.046;13.796;2024-01-11T03:40:46;20.60;;;13.87;;
62798;SDS011;48842;51.046;13.796;2024-01-11T03:43:11;24.40;;;13.40;;
62798;SDS011;48842;51.046;13.796;2024-01-11T03:45:36;26.80;;;14.40;;
62798;SDS011;48842;51.046;13.796;2024-01-11T03:48:01;20.10;;;13.37;;
62798;SDS011;48842;51.046;13.796;2024-01-11T03:50:27;33.23;;;13.77;;
62798;SDS011;48842;51.046;13.796;2024-01-11T03:52:52;23.97;;;13.67;;
62798;SDS011;48842;51.046;13.796;2024-01-11T03:55:17;24.30;;;12.53;;
62798;SDS011;48842;51.046;13.796;2024-01-11T03:57:42;24.53;;;14.17;;
62798;SDS011;48842;51.046;13.796;2024-01-11T04:00:11;27.48;;;12.18;;
62798;SDS011;48842;51.046;13.796;2024-01-11T04:02:36;18.33;;;12.32;;
62798;SDS011;48842;51.046;13.796;2024-01-11T04:05:02;22.70;;;13.33;;
62798;SDS011;48842;51.046;13.796;2024-01-11T04:07:28;24.05;;;12.80;;
62798;SDS011;48842;51.046;13.796;2024-01-11T04:09:53;21.67;;;12.20;;
62798;SDS011;48842;51.046;13.796;2024-01-11T04:12:19;18.50;;;12.40;;
62798;SDS011;48842;51.046;13.796;2024-01-11T04:14:44;27.73;;;13.10;;
62798;SDS011;48842;51.046;13.796;2024-01-11T04:17:10;18.87;;;12.13;;
62798;SDS011;48842;51.046;13.796;2024-01-11T04:19:35;16.92;;;11.15;;
62798;SDS011;48842;51.046;13.796;2024-01-11T04:22:02;20.20;;;12.80;;
62798;SDS011;48842;51.046;13.796;2024-01-11T04:24:27;18.00;;;12.13;;
62798;SDS011;48842;51.046;13.796;2024-01-11T04:26:52;21.33;;;11.90;;
62798;SDS011;48842;51.046;13.796;2024-01-11T04:29:18;18.77;;;12.43;;
62798;SDS011;48842;51.046;13.796;2024-01-11T04:31:43;21.17;;;11.67;;
62798;SDS011;48842;51.046;13.796;2024-01-11T04:34:08;21.73;;;13.93;;
62798;SDS011;48842;51.046;13.796;2024-01-11T04:36:36;23.77;;;14.07;;
62798;SDS011;48842;51.046;13.796;2024-01-11T04:39:02;21.13;;;12.98;;
62798;SDS011;48842;51.046;13.796;2024-01-11T04:41:27;20.23;;;13.03;;
62798;SDS011;48842;51.046;13.796;2024-01-11T04:43:52;18.37;;;12.70;;
62798;SDS011;48842;51.046;13.796;2024-01-11T04:46:19;22.10;;;14.23;;
62798;SDS011;48842;51.046;13.796;2024-01-11T04:48:45;18.48;;;11.85;;
62798;SDS011;48842;51.046;13.796;2024-01-11T04:51:11;19.38;;;11.98;;
62798;SDS011;48842;51.046;13.796;2024-01-11T04:53:38;25.42;;;14.25;;
62798;SDS011;48842;51.046;13.796;2024-01-11T04:56:07;25.73;;;12.50;;
62798;SDS011;48842;51.046;13.796;2024-01-11T04:58:34;21.40;;;11.77;;
62798;SDS011;48842;51.046;13.796;2024-01-11T05:00:59;18.35;;;12.00;;
62798;SDS011;48842;51.046;13.796;2024-01-11T05:03:25;19.57;;;12.40;;
62798;SDS011;48842;51.046;13.796;2024-01-11T05:05:50;21.67;;;12.33;;
62798;SDS011;48842;51.046;13.796;2024-01-11T05:08:16;19.97;;;11.07;;
62798;SDS011;48842;51.046;13.796;2024-01-11T05:10:41;18.97;;;12.23;;
62798;SDS011;48842;51.046;13.796;2024-01-11T05:13:06;20.13;;;12.30;;
62798;SDS011;48842;51.046;13.796;2024-01-11T05:15:31;22.77;;;12.17;;
62798;SDS011;48842;51.046;13.796;2024-01-11T05:17:57;20.50;;;12.40;;
62798;SDS011;48842;51.046;13.796;2024-01-11T05:20:23;20.10;;;11.32;;
62798;SDS011;48842;51.046;13.796;2024-01-11T05:22:48;17.57;;;11.97;;
62798;SDS011;48842;51.046;13.796;2024-01-11T05:25:13;19.80;;;11.97;;
62798;SDS011;48842;51.046;13.796;2024-01-11T05:27:39;23.63;;;12.03;;
62798;SDS011;48842;51.046;13.796;2024-01-11T05:30:05;23.73;;;13.23;;
62798;SDS011;48842;51.046;13.796;2024-01-11T05:32:31;20.35;;;11.18;;
62798;SDS011;48842;51.046;13.796;2024-01-11T05:34:58;21.37;;;11.67;;
62798;SDS011;48842;51.046;13.796;2024-01-11T05:37:23;20.40;;;11.93;;
62798;SDS011;48842;51.046;13.796;2024-01-11T05:39:49;21.47;;;12.93;;
62798;SDS011;48842;51.046;13.796;2024-01-11T05:42:14;16.23;;;11.80;;
62798;SDS011;48842;51.046;13.796;2024-01-11T05:44:39;22.67;;;13.10;;
62798;SDS011;48842;51.046;13.796;2024-01-11T05:47:05;21.42;;;12.25;;
62798;SDS011;48842;51.046;13.796;2024-01-11T05:49:30;22.13;;;12.80;;
62798;SDS011;48842;51.046;13.796;2024-01-11T05:51:56;25.13;;;14.83;;
62798;SDS011;48842;51.046;13.796;2024-01-11T05:54:21;30.97;;;14.40;;
62798;SDS011;48842;51.046;13.796;2024-01-11T05:56:46;29.10;;;14.00;;
62798;SDS011;48842;51.046;13.796;2024-01-11T05:59:11;24.00;;;14.10;;
62798;SDS011;48842;51.046;13.796;2024-01-11T06:01:40;21.93;;;14.20;;
62798;SDS011;48842;51.046;13.796;2024-01-11T06:04:08;30.05;;;13.52;;
62798;SDS011;48842;51.046;13.796;2024-01-11T06:06:33;21.20;;;11.63;;
62798;SDS011;48842;51.046;13.796;2024-01-11T06:08:59;28.87;;;13.80;;
62798;SDS011;48842;51.046;13.796;2024-01-11T06:11:24;19.07;;;11.97;;
62798;SDS011;48842;51.046;13.796;2024-01-11T06:13:49;22.60;;;12.10;;
62798;SDS011;48842;51.046;13.796;2024-01-11T06:16:15;20.93;;;12.43;;
62798;SDS011;48842;51.046;13.796;2024-01-11T06:18:40;22.83;;;11.77;;
62798;SDS011;48842;51.046;13.796;2024-01-11T06:21:05;22.93;;;13.47;;
62798;SDS011;48842;51.046;13.796;2024-01-11T06:23:30;21.13;;;13.10;;
62798;SDS011;48842;51.046;13.796;2024-01-11T06:25:57;20.70;;;12.73;;
62798;SDS011;48842;51.046;13.796;2024-01-11T06:28:22;26.67;;;13.50;;
62798;SDS011;48842;51.046;13.796;2024-01-11T06:30:47;19.30;;;12.07;;
62798;SDS011;48842;51.046;13.796;2024-01-11T06:33:12;21.87;;;13.80;;
62798;SDS011;48842;51.046;13.796;2024-01-11T06:35:38;24.90;;;14.20;;
62798;SDS011;48842;51.046;13.796;2024-01-11T06:38:03;27.70;;;15.17;;
62798;SDS011;48842;51.046;13.796;2024-01-11T06:40:28;23.83;;;12.47;;
62798;SDS011;48842;51.046;13.796;2024-01-11T06:42:53;22.33;;;12.23;;
62798;SDS011;48842;51.046;13.796;2024-01-11T06:45:19;26.73;;;14.43;;
62798;SDS011;48842;51.046;13.796;2024-01-11T06:47:44;23.23;;;12.60;;
62798;SDS011;48842;51.046;13.796;2024-01-11T06:50:12;19.58;;;10.85;;
62798;SDS011;48842;51.046;13.796;2024-01-11T06:52:38;21.47;;;12.60;;
62798;SDS011;48842;51.046;13.796;2024-01-11T06:55:03;18.33;;;11.90;;
62798;SDS011;48842;51.046;13.796;2024-01-11T06:57:29;21.80;;;11.48;;
62798;SDS011;48842;51.046;13.796;2024-01-11T06:59:54;18.50;;;11.30;;
62798;SDS011;48842;51.046;13.796;2024-01-11T07:02:20;16.93;;;11.37;;
62798;SDS011;48842;51.046;13.796;2024-01-11T07:04:45;18.60;;;12.40;;
62798;SDS011;48842;51.046;13.796;2024-01-11T07:07:10;18.50;;;12.87;;
62798;SDS011;48842;51.046;13.796;2024-01-11T07:09:35;22.17;;;12.03;;
62798;SDS011;48842;51.046;13.796;2024-01-11T07:12:01;19.83;;;12.70;;
62798;SDS011;48842;51.046;13.796;2024-01-11T07:14:26;21.53;;;12.57;;
62798;SDS011;48842;51.046;13.796;2024-01-11T07:16:53;19.57;;;11.37;;
62798;SDS011;48842;51.046;13.796;2024-01-11T07:19:18;17.52;;;12.20;;
62798;SDS011;48842;51.046;13.796;2024-01-11T07:21:44;16.10;;;11.33;;
62798;SDS011;48842;51.046;13.796;2024-01-11T07:24:09;21.30;;;11.43;;
62798;SDS011;48842;51.046;13.796;2024-01-11T07:26:34;21.13;;;12.17;;
62798;SDS011;48842;51.046;13.796;2024-01-11T07:28:59;16.53;;;10.87;;
62798;SDS011;48842;51.046;13.796;2024-01-11T07:31:24;20.07;;;12.53;;
62798;SDS011;48842;51.046;13.796;2024-01-11T07:33:50;20.53;;;10.70;;
62798;SDS011;48842;51.046;13.796;2024-01-11T07:36:16;16.83;;;11.10;;
62798;SDS011;48842;51.046;13.796;2024-01-11T07:38:41;24.37;;;11.63;;
62798;SDS011;48842;51.046;13.796;2024-01-11T07:41:06;19.57;;;11.20;;
62798;SDS011;48842;51.046;13.796;2024-01-11T07:43:32;18.37;;;12.50;;
62798;SDS011;48842;51.046;13.796;2024-01-11T07:46:00;21.98;;;12.63;;
62798;SDS011;48842;51.046;13.796;2024-01-11T07:48:26;19.50;;;11.70;;
62798;SDS011;48842;51.046;13.796;2024-01-11T07:50:52;13.87;;;10.40;;
62798;SDS011;48842;51.046;13.796;2024-01-11T07:53:17;17.87;;;10.60;;
62798;SDS011;48842;51.046;13.796;2024-01-11T07:55:42;16.80;;;11.10;;
62798;SDS011;48842;51.046;13.796;2024-01-11T07:58:08;21.67;;;12.10;;
62798;SDS011;48842;51.046;13.796;2024-01-11T08:00:33;22.93;;;12.37;;
62798;SDS011;48842;51.046;13.796;2024-01-11T08:02:58;18.17;;;11.23;;
62798;SDS011;48842;51.046;13.796;2024-01-11T08:05:24;25.40;;;13.23;;
62798;SDS011;48842;51.046;13.796;2024-01-11T08:07:52;19.95;;;13.02;;
62798;SDS011;48842;51.046;13.796;2024-01-11T08:10:17;24.42;;;11.65;;
62798;SDS011;48842;51.046;13.796;2024-01-11T08:12:42;17.07;;;12.00;;
62798;SDS011;48842;51.046;13.796;2024-01-11T08:15:08;23.50;;;14.00;;
62798;SDS011;48842;51.046;13.796;2024-01-11T08:17:44;19.42;;;12.00;;
62798;SDS011;48842;51.046;13.796;2024-01-11T08:20:10;21.38;;;13.02;;
62798;SDS011;48842;51.046;13.796;2024-01-11T08:22:36;22.00;;;13.00;;
62798;SDS011;48842;51.046;13.796;2024-01-11T08:25:05;19.40;;;11.88;;
62798;SDS011;48842;51.046;13.796;2024-01-11T08:27:31;21.77;;;11.53;;
62798;SDS011;48842;51.046;13.796;2024-01-11T08:29:57;21.45;;;13.02;;
62798;SDS011;48842;51.046;13.796;2024-01-11T08:32:23;22.93;;;12.87;;
62798;SDS011;48842;51.046;13.796;2024-01-11T08:34:48;34.40;;;12.30;;
62798;SDS011;48842;51.046;13.796;2024-01-11T08:37:14;19.83;;;12.57;;
62798;SDS011;48842;51.046;13.796;2024-01-11T08:39:39;19.80;;;12.47;;
62798;SDS011;48842;51.046;13.796;2024-01-11T08:42:04;21.57;;;12.07;;
62798;SDS011;48842;51.046;13.796;2024-01-11T08:44:30;18.40;;;11.80;;
62798;SDS011;48842;51.046;13.796;2024-01-11T08:46:55;16.73;;;12.20;;
62798;SDS011;48842;51.046;13.796;2024-01-11T08:49:22;25.48;;;12.32;;
62798;SDS011;48842;51.046;13.796;2024-01-11T08:51:47;23.63;;;12.40;;
62798;SDS011;48842;51.046;13.796;2024-01-11T08:54:13;19.33;;;11.70;;
62798;SDS011;48842;51.046;13.796;2024-01-11T08:56:41;20.65;;;12.50;;
62798;SDS011;48842;51.046;13.796;2024-01-11T08:59:08;25.43;;;11.93;;
62798;SDS011;48842;51.046;13.796;2024-01-11T09:01:35;23.65;;;12.82;;
62798;SDS011;48842;51.046;13.796;2024-01-11T09:04:01;24.92;;;12.98;;
62798;SDS011;48842;51.046;13.796;2024-01-11T09:06:26;21.77;;;11.90;;
62798;SDS011;48842;51.046;13.796;2024-01-11T09:08:52;20.60;;;12.73;;
62798;SDS011;48842;51.046;13.796;2024-01-11T09:11:18;23.23;;;13.63;;
62798;SDS011;48842;51.046;13.796;2024-01-11T09:13:43;23.50;;;14.17;;
62798;SDS011;48842;51.046;13.796;2024-01-11T09:16:08;21.53;;;14.90;;
62798;SDS011;48842;51.046;13.796;2024-01-11T09:18:34;27.43;;;15.03;;
62798;SDS011;48842;51.046;13.796;2024-01-11T09:21:00;24.87;;;14.77;;
62798;SDS011;48842;51.046;13.796;2024-01-11T09:23:25;27.03;;;14.97;;
62798;SDS011;48842;51.046;13.796;2024-01-11T09:25:50;25.03;;;15.27;;
62798;SDS011;48842;51.046;13.796;2024-01-11T09:28:16;33.37;;;16.83;;
62798;SDS011;48842;51.046;13.796;2024-01-11T09:30:41;32.93;;;17.67;;
62798;SDS011;48842;51.046;13.796;2024-01-11T09:33:07;33.20;;;18.30;;
62798;SDS011;48842;51.046;13.796;2024-01-11T09:35:33;31.45;;;18.25;;
62798;SDS011;48842;51.046;13.796;2024-01-11T09:37:59;38.70;;;20.60;;
62798;SDS011;48842;51.046;13.796;2024-01-11T09:40:25;40.10;;;21.10;;
62798;SDS011;48842;51.046;13.796;2024-01-11T09:42:51;34.27;;;19.93;;
62798;SDS011;48842;51.046;13.796;2024-01-11T09:45:17;41.60;;;22.63;;
62798;SDS011;48842;51.046;13.796;2024-01-11T09:47:46;39.53;;;21.50;;
62798;SDS011;48842;51.046;13.796;2024-01-11T09:50:13;41.63;;;22.10;;
62798;SDS011;48842;51.046;13.796;2024-01-11T09:52:46;37.65;;;21.67;;
62798;SDS011;48842;51.046;13.796;2024-01-11T09:55:13;42.67;;;23.65;;
62798;SDS011;48842;51.046;13.796;2024-01-11T09:57:41;47.20;;;23.40;;
62798;SDS011;48842;51.046;13.796;2024-01-11T10:00:09;47.58;;;24.10;;
62798;SDS011;48842;51.046;13.796;2024-01-11T10:02:38;40.88;;;24.02;;
62798;SDS011;48842;51.046;13.796;2024-01-11T10:05:04;43.17;;;23.23;;
62798;SDS011;48842;51.046;13.796;2024-01-11T10:07:30;46.00;;;23.85;;
62798;SDS011;48842;51.046;13.796;2024-01-11T10:09:57;45.83;;;24.05;;
62798;SDS011;48842;51.046;13.796;2024-01-11T10:12:23;56.40;;;28.97;;
62798;SDS011;48842;51.046;13.796;2024-01-11T10:14:50;54.80;;;24.63;;
62798;SDS011;48842;51.046;13.796;2024-01-11T10:17:16;50.35;;;27.13;;
62798;SDS011;48842;51.046;13.796;2024-01-11T10:19:41;47.57;;;25.60;;
62798;SDS011;48842;51.046;13.796;2024-01-11T10:22:07;40.80;;;24.55;;
62798;SDS011;48842;51.046;13.796;2024-01-11T10:24:38;49.28;;;25.50;;
62798;SDS011;48842;51.046;13.796;2024-01-11T10:27:04;49.28;;;26.92;;
62798;SDS011;48842;51.046;13.796;2024-01-11T10:29:33;53.17;;;26.65;;
62798;SDS011;48842;51.046;13.796;2024-01-11T10:32:01;46.58;;;27.10;;
62798;SDS011;48842;51.046;13.796;2024-01-11T10:34:28;56.17;;;30.23;;
62798;SDS011;48842;51.046;13.796;2024-01-11T10:36:53;48.00;;;27.63;;
62798;SDS011;48842;51.046;13.796;2024-01-11T10:39:20;55.03;;;28.40;;
62798;SDS011;48842;51.046;13.796;2024-01-11T10:41:51;52.88;;;29.92;;
62798;SDS011;48842;51.046;13.796;2024-01-11T10:44:18;51.05;;;30.13;;
62798;SDS011;48842;51.046;13.796;2024-01-11T10:46:50;53.65;;;28.40;;
62798;SDS011;48842;51.046;13.796;2024-01-11T10:49:20;53.15;;;29.15;;
62798;SDS011;48842;51.046;13.796;2024-01-11T10:51:58;63.40;;;31.15;;
62798;SDS011;48842;51.046;13.796;2024-01-11T10:54:25;65.97;;;31.60;;
62798;SDS011;48842;51.046;13.796;2024-01-11T10:56:52;58.20;;;30.80;;
62798;SDS011;48842;51.046;13.796;2024-01-11T10:59:24;57.33;;;31.65;;
62798;SDS011;48842;51.046;13.796;2024-01-11T11:01:54;66.63;;;33.38;;
62798;SDS011;48842;51.046;13.796;2024-01-11T11:04:24;61.38;;;33.67;;
62798;SDS011;48842;51.046;13.796;2024-01-11T11:06:56;65.50;;;31.52;;
62798;SDS011;48842;51.046;13.796;2024-01-11T11:09:24;61.20;;;34.28;;
62798;SDS011;48842;51.046;13.796;2024-01-11T11:11:53;66.50;;;32.85;;
62798;SDS011;48842;51.046;13.796;2024-01-11T11:14:20;67.05;;;33.03;;
62798;SDS011;48842;51.046;13.796;2024-01-11T11:16:47;88.10;;;33.85;;
62798;SDS011;48842;51.046;13.796;2024-01-11T11:19:12;64.20;;;33.50;;
62798;SDS011;48842;51.046;13.796;2024-01-11T11:21:42;74.60;;;33.63;;
62798;SDS011;48842;51.046;13.796;2024-01-11T11:24:10;62.65;;;32.45;;
62798;SDS011;48842;51.046;13.796;2024-01-11T11:26:37;72.35;;;34.22;;
62798;SDS011;48842;51.046;13.796;2024-01-11T11:29:03;74.57;;;32.30;;
62798;SDS011;48842;51.046;13.796;2024-01-11T11:31:35;56.47;;;31.70;;
62798;SDS011;48842;51.046;13.796;2024-01-11T11:34:07;57.47;;;29.05;;
62798;SDS011;48842;51.046;13.796;2024-01-11T11:36:36;53.28;;;31.63;;
62798;SDS011;48842;51.046;13.796;2024-01-11T11:39:01;63.57;;;32.83;;
62798;SDS011;48842;51.046;13.796;2024-01-11T11:41:27;58.92;;;31.40;;
62798;SDS011;48842;51.046;13.796;2024-01-11T11:43:55;62.13;;;32.95;;
62798;SDS011;48842;51.046;13.796;2024-01-11T11:46:25;61.03;;;32.63;;
62798;SDS011;48842;51.046;13.796;2024-01-11T11:48:51;58.37;;;32.57;;
62798;SDS011;48842;51.046;13.796;2024-01-11T11:51:18;61.28;;;31.77;;
62798;SDS011;48842;51.046;13.796;2024-01-11T11:53:45;64.32;;;33.28;;
62798;SDS011;48842;51.046;13.796;2024-01-11T11:56:15;68.18;;;31.83;;
62798;SDS011;48842;51.046;13.796;2024-01-11T11:58:42;55.45;;;30.52;;
62798;SDS011;48842;51.046;13.796;2024-01-11T12:01:08;79.43;;;31.37;;
62798;SDS011;48842;51.046;13.796;2024-01-11T12:03:34;57.13;;;29.70;;
62798;SDS011;48842;51.046;13.796;2024-01-11T12:06:09;58.22;;;30.77;;
62798;SDS011;48842;51.046;13.796;2024-01-11T12:08:35;53.70;;;29.40;;
62798;SDS011;48842;51.046;13.796;2024-01-11T12:11:01;56.25;;;28.80;;
62798;SDS011;48842;51.046;13.796;2024-01-11T12:13:29;54.47;;;29.40;;
62798;SDS011;48842;51.046;13.796;2024-01-11T12:15:55;57.10;;;30.48;;
62798;SDS011;48842;51.046;13.796;2024-01-11T12:18:21;58.67;;;30.73;;
62798;SDS011;48842;51.046;13.796;2024-01-11T12:20:48;56.40;;;29.37;;
62798;SDS011;48842;51.046;13.796;2024-01-11T12:23:14;61.08;;;31.27;;
62798;SDS011;48842;51.046;13.796;2024-01-11T12:25:40;47.87;;;27.43;;
62798;SDS011;48842;51.046;13.796;2024-01-11T12:28:06;60.42;;;28.83;;
62798;SDS011;48842;51.046;13.796;2024-01-11T12:30:31;57.67;;;28.30;;
62798;SDS011;48842;51.046;13.796;2024-01-11T12:32:57;60.20;;;28.87;;
62798;SDS011;48842;51.046;13.796;2024-01-11T12:35:23;50.27;;;28.20;;
62798;SDS011;48842;51.046;13.796;2024-01-11T12:38:01;52.83;;;27.87;;
62798;SDS011;48842;51.046;13.796;2024-01-11T12:40:34;60.20;;;28.10;;
62798;SDS011;48842;51.046;13.796;2024-01-11T12:43:02;54.05;;;28.70;;
62798;SDS011;48842;51.046;13.796;2024-01-11T12:45:28;51.10;;;28.85;;
62798;SDS011;48842;51.046;13.796;2024-01-11T12:47:54;51.33;;;28.92;;
62798;SDS011;48842;51.046;13.796;2024-01-11T12:50:21;56.25;;;28.52;;
62798;SDS011;48842;51.046;13.796;2024-01-11T12:53:03;56.75;;;28.63;;
62798;SDS011;48842;51.046;13.796;2024-01-11T12:55:32;52.53;;;27.00;;
62798;SDS011;48842;51.046;13.796;2024-01-11T12:58:08;50.97;;;27.38;;
62798;SDS011;48842;51.046;13.796;2024-01-11T13:00:37;50.47;;;28.60;;
62798;SDS011;48842;51.046;13.796;2024-01-11T13:03:04;56.85;;;29.50;;
62798;SDS011;48842;51.046;13.796;2024-01-11T13:05:30;52.80;;;27.90;;
62798;SDS011;48842;51.046;13.796;2024-01-11T13:08:10;63.58;;;29.45;;
62798;SDS011;48842;51.046;13.796;2024-01-11T13:10:36;53.97;;;30.25;;
62798;SDS011;48842;51.046;13.796;2024-01-11T13:13:02;62.88;;;29.52;;
62798;SDS011;48842;51.046;13.796;2024-01-11T13:15:28;53.60;;;28.65;;
62798;SDS011;48842;51.046;13.796;2024-01-11T13:17:55;55.87;;;30.03;;
62798;SDS011;48842;51.046;13.796;2024-01-11T13:20:21;50.20;;;27.45;;
62798;SDS011;48842;51.046;13.796;2024-01-11T13:22:47;50.83;;;28.00;;
62798;SDS011;48842;51.046;13.796;2024-01-11T13:25:12;51.97;;;27.63;;
62798;SDS011;48842;51.046;13.796;2024-01-11T13:27:37;52.90;;;28.27;;
62798;SDS011;48842;51.046;13.796;2024-01-11T13:30:05;52.30;;;26.37;;
62798;SDS011;48842;51.046;13.796;2024-01-11T13:32:30;52.53;;;27.23;;
62798;SDS011;48842;51.046;13.796;2024-01-11T13:34:56;58.33;;;27.70;;
62798;SDS011;48842;51.046;13.796;2024-01-11T13:37:24;51.42;;;27.15;;
62798;SDS011;48842;51.046;13.796;2024-01-11T13:39:49;55.15;;;28.40;;
62798;SDS011;48842;51.046;13.796;2024-01-11T13:42:15;51.43;;;27.37;;
62798;SDS011;48842;51.046;13.796;2024-01-11T13:44:41;50.13;;;26.30;;
62798;SDS011;48842;51.046;13.796;2024-01-11T13:47:06;52.70;;;28.97;;
62798;SDS011;48842;51.046;13.796;2024-01-11T13:49:31;49.93;;;27.60;;
62798;SDS011;48842;51.046;13.796;2024-01-11T13:51:56;59.03;;;26.90;;
62798;SDS011;48842;51.046;13.796;2024-01-11T13:54:22;57.30;;;28.40;;
62798;SDS011;48842;51.046;13.796;2024-01-11T13:56:47;52.60;;;27.67;;
62798;SDS011;48842;51.046;13.796;2024-01-11T13:59:12;50.97;;;24.87;;
62798;SDS011;48842;51.046;13.796;2024-01-11T14:01:38;50.87;;;27.03;;
62798;SDS011;48842;51.046;13.796;2024-01-11T14:04:03;48.47;;;26.90;;